Time;durP1;ratioP1;P1;durP2;ratioP2;P2;SDS_P1;SDS_P2;PMS_P1;PMS_P2;Temp;Humidity;BMP_temperature;BMP_pressure;BME280_temperature;BME280_humidity;BME280_pressure;Samples;Min_cycle;Max_cycle;Signal;HPM_P1;HPM_P2
2022/02/28 00:01:04;;;;;;;1.60;1.30;;;4.90;89.30;;;;;;5000002;28;21052;-72
2022/02/28 00:03:31;;;;;;;1.60;1.30;;;4.80;89.40;;;;;;5001001;28;20475;-70
2022/02/28 00:05:58;;;;;;;1.63;1.53;;;4.80;89.40;;;;;;5006001;28;20477;-72
2022/02/28 00:08:25;;;;;;;1.60;1.40;;;4.70;89.50;;;;;;5014048;28;20463;-73
2022/02/28 00:10:52;;;;;;;1.57;1.30;;;4.70;89.60;;;;;;5008574;28;20475;-73
2022/02/28 00:13:19;;;;;;;1.57;1.37;;;4.70;89.70;;;;;;5009750;28;20471;-72
2022/02/28 00:15:47;;;;;;;1.60;1.40;;;4.60;89.70;;;;;;5009226;28;20488;-70
2022/02/28 00:18:14;;;;;;;1.57;1.40;;;4.60;89.70;;;;;;5009050;28;20548;-73
2022/02/28 00:20:41;;;;;;;1.60;1.40;;;4.60;89.80;;;;;;5014290;28;20463;-70
2022/02/28 00:23:09;;;;;;;1.53;1.30;;;4.60;89.90;;;;;;5009866;28;20834;-73
2022/02/28 00:25:36;;;;;;;1.60;1.40;;;4.50;90.00;;;;;;5009128;28;20747;-73
2022/02/28 00:28:05;;;;;;;1.60;1.40;;;4.50;90.10;;;;;;5010279;28;20463;-72
2022/02/28 00:30:33;;;;;;;1.60;1.43;;;4.50;89.90;;;;;;5009130;28;20531;-72
2022/02/28 00:33:01;;;;;;;1.50;1.40;;;4.50;89.80;;;;;;5009501;28;20488;-72
2022/02/28 00:35:28;;;;;;;1.60;1.40;;;4.50;90.10;;;;;;5008888;28;20571;-73
2022/02/28 00:37:55;;;;;;;1.60;1.50;;;4.50;89.90;;;;;;5007837;28;20519;-73
2022/02/28 00:40:22;;;;;;;1.60;1.40;;;4.50;90.10;;;;;;5008485;28;20464;-73
2022/02/28 00:42:48;;;;;;;1.53;1.37;;;4.50;90.10;;;;;;5010338;28;20460;-72
2022/02/28 00:45:15;;;;;;;1.50;1.30;;;4.40;90.10;;;;;;5009748;28;20464;-72
2022/02/28 00:47:42;;;;;;;1.60;1.40;;;4.40;90.20;;;;;;5009123;28;20496;-72
2022/02/28 00:50:12;;;;;;;1.60;1.40;;;4.40;90.10;;;;;;5012174;28;20464;-73
2022/02/28 00:52:39;;;;;;;1.53;1.30;;;4.40;90.20;;;;;;5006908;28;20862;-72
2022/02/28 00:55:08;;;;;;;1.60;1.40;;;4.40;90.20;;;;;;5009396;28;21002;-72
2022/02/28 00:57:35;;;;;;;1.60;1.40;;;4.40;90.20;;;;;;5008980;28;20509;-72
2022/02/28 01:00:01;;;;;;;1.60;1.30;;;4.40;90.20;;;;;;5007574;28;20475;-72
2022/02/28 01:02:29;;;;;;;1.57;1.40;;;4.40;90.20;;;;;;5009246;28;20963;-72
2022/02/28 01:04:56;;;;;;;1.57;1.30;;;4.30;90.50;;;;;;5010178;28;20944;-72
2022/02/28 01:07:24;;;;;;;1.57;1.30;;;4.30;90.50;;;;;;5006270;28;21225;-72
2022/02/28 01:09:51;;;;;;;1.60;1.40;;;4.30;90.50;;;;;;5008550;28;20472;-72
2022/02/28 01:12:17;;;;;;;1.60;1.37;;;4.30;90.50;;;;;;5009111;28;20494;-72
2022/02/28 01:14:44;;;;;;;1.53;1.37;;;4.30;90.40;;;;;;5009821;28;20847;-72
2022/02/28 01:17:11;;;;;;;1.60;1.40;;;4.30;90.50;;;;;;4996913;28;20495;-72
2022/02/28 01:19:40;;;;;;;1.60;1.40;;;4.30;90.50;;;;;;5011357;28;20471;-72
2022/02/28 01:22:09;;;;;;;1.60;1.50;;;4.30;90.50;;;;;;5009299;28;20482;-72
2022/02/28 01:24:40;;;;;;;1.60;1.30;;;4.30;90.40;;;;;;5009877;28;20563;-72
2022/02/28 01:27:07;;;;;;;1.60;1.40;;;4.30;90.50;;;;;;5009094;28;20511;-72
2022/02/28 01:29:34;;;;;;;1.60;1.50;;;4.30;90.50;;;;;;5007049;28;20475;-72
2022/02/28 01:32:01;;;;;;;1.60;1.40;;;4.30;90.50;;;;;;4997551;28;20484;-72
2022/02/28 01:34:27;;;;;;;1.53;1.30;;;4.30;90.50;;;;;;5008374;28;20475;-72
2022/02/28 01:36:54;;;;;;;1.60;1.40;;;4.30;90.50;;;;;;5013418;28;20497;-72
2022/02/28 01:39:22;;;;;;;1.60;1.40;;;4.30;90.50;;;;;;5010161;28;20932;-73
2022/02/28 01:41:50;;;;;;;3.30;3.10;;;4.30;90.40;;;;;;5008733;28;20464;-72
2022/02/28 01:44:17;;;;;;;1.60;1.50;;;4.30;90.60;;;;;;5009200;28;20843;-73
2022/02/28 01:46:44;;;;;;;1.70;1.60;;;4.30;90.30;;;;;;5010006;28;20506;-72
2022/02/28 01:49:11;;;;;;;1.60;1.40;;;4.30;90.30;;;;;;5015271;28;20468;-73
2022/02/28 01:51:38;;;;;;;1.57;1.30;;;4.30;90.40;;;;;;5013337;28;20495;-72
2022/02/28 01:54:05;;;;;;;1.70;1.60;;;4.30;90.40;;;;;;5008799;28;20659;-72
2022/02/28 01:56:33;;;;;;;1.57;1.30;;;4.30;90.20;;;;;;5008174;28;20476;-72
2022/02/28 01:59:02;;;;;;;1.57;1.30;;;4.30;90.30;;;;;;5008163;28;20467;-73
2022/02/28 02:01:29;;;;;;;1.60;1.37;;;4.40;90.40;;;;;;5011655;28;20862;-72
2022/02/28 02:03:56;;;;;;;1.60;1.43;;;4.30;90.40;;;;;;5009441;28;20468;-72
2022/02/28 02:06:24;;;;;;;1.60;1.37;;;4.30;90.50;;;;;;5007443;28;20853;-72
2022/02/28 02:08:51;;;;;;;1.57;1.37;;;4.40;90.30;;;;;;5008189;28;20947;-72
2022/02/28 02:11:19;;;;;;;1.60;1.40;;;4.40;90.50;;;;;;5006630;28;20460;-72
2022/02/28 02:13:48;;;;;;;1.57;1.37;;;4.40;90.30;;;;;;5008572;28;20571;-72
2022/02/28 02:16:16;;;;;;;1.60;1.40;;;4.30;90.30;;;;;;5006918;28;20488;-72
2022/02/28 02:18:43;;;;;;;1.57;1.30;;;4.30;90.30;;;;;;5006105;28;20461;-72
2022/02/28 02:21:12;;;;;;;1.60;1.30;;;4.30;90.20;;;;;;5013207;28;20476;-72
2022/02/28 02:23:41;;;;;;;1.50;1.30;;;4.30;90.30;;;;;;5011492;28;20472;-73
2022/02/28 02:26:09;;;;;;;1.57;1.30;;;4.30;90.20;;;;;;5006180;28;20578;-72
2022/02/28 02:28:36;;;;;;;2.63;2.43;;;4.30;90.20;;;;;;5007620;28;20467;-72
2022/02/28 02:31:04;;;;;;;1.60;1.40;;;4.30;90.10;;;;;;5005630;28;20483;-72
2022/02/28 02:33:31;;;;;;;1.60;1.40;;;4.30;90.10;;;;;;5008694;28;20504;-72
2022/02/28 02:35:59;;;;;;;1.60;1.40;;;4.30;90.20;;;;;;5002026;28;20500;-72
2022/02/28 02:38:28;;;;;;;1.60;1.40;;;4.30;90.10;;;;;;5001855;28;20659;-72
2022/02/28 02:40:55;;;;;;;1.60;1.40;;;4.30;90.20;;;;;;5010777;28;20467;-72
2022/02/28 02:43:22;;;;;;;1.60;1.40;;;4.30;90.40;;;;;;4995485;28;20463;-73
2022/02/28 02:45:50;;;;;;;1.60;1.40;;;4.30;90.50;;;;;;4997019;28;20499;-72
2022/02/28 02:48:20;;;;;;;1.67;1.57;;;4.30;90.40;;;;;;5009583;28;20802;-73
2022/02/28 02:50:47;;;;;;;1.60;1.40;;;4.30;90.30;;;;;;5012587;28;21084;-72
2022/02/28 02:53:15;;;;;;;1.60;1.40;;;4.30;90.00;;;;;;5007208;28;20492;-72
2022/02/28 02:55:43;;;;;;;1.60;1.30;;;4.30;90.10;;;;;;5005700;28;21047;-72
2022/02/28 02:58:13;;;;;;;1.60;1.33;;;4.30;90.20;;;;;;4994847;28;20499;-72
2022/02/28 03:00:41;;;;;;;1.60;1.30;;;4.20;90.30;;;;;;5005253;28;20911;-72
2022/02/28 03:03:09;;;;;;;1.70;1.60;;;4.20;90.50;;;;;;5007025;28;20463;-72
2022/02/28 03:05:36;;;;;;;1.60;1.40;;;4.10;90.50;;;;;;5007592;28;20495;-72
2022/02/28 03:08:02;;;;;;;2.03;1.83;;;4.10;90.60;;;;;;4993255;28;20484;-72
2022/02/28 03:10:29;;;;;;;1.57;1.30;;;4.10;90.80;;;;;;5005969;28;20479;-72
2022/02/28 03:12:58;;;;;;;1.60;1.40;;;4.10;90.90;;;;;;5004574;28;20585;-72
2022/02/28 03:15:24;;;;;;;1.60;1.40;;;4.10;90.80;;;;;;5005028;28;20467;-73
2022/02/28 03:17:51;;;;;;;1.60;1.40;;;4.10;90.80;;;;;;4985536;28;20488;-73
2022/02/28 03:20:18;;;;;;;1.60;1.40;;;4.10;90.80;;;;;;5013168;28;20460;-72
2022/02/28 03:22:45;;;;;;;1.60;1.43;;;4.10;90.90;;;;;;5007359;28;20456;-73
2022/02/28 03:25:11;;;;;;;1.63;1.53;;;4.10;91.00;;;;;;5007348;28;20922;-71
2022/02/28 03:27:38;;;;;;;1.60;1.40;;;4.00;90.70;;;;;;5006963;28;20475;-72
2022/02/28 03:30:09;;;;;;;1.60;1.40;;;4.00;90.90;;;;;;5006424;28;20467;-72
2022/02/28 03:32:36;;;;;;;1.60;1.40;;;4.00;90.80;;;;;;5006121;28;20480;-72
2022/02/28 03:35:04;;;;;;;1.50;1.30;;;4.00;90.70;;;;;;5007475;28;20472;-71
2022/02/28 03:37:31;;;;;;;1.67;1.57;;;4.00;90.70;;;;;;5006477;28;20495;-72
2022/02/28 03:39:59;;;;;;;1.70;1.60;;;4.00;90.70;;;;;;5005458;28;20464;-71
2022/02/28 03:42:26;;;;;;;1.50;1.30;;;4.00;90.70;;;;;;5010567;28;20952;-72
2022/02/28 03:44:52;;;;;;;1.60;1.40;;;4.00;90.70;;;;;;5013066;28;20460;-73
2022/02/28 03:47:21;;;;;;;1.57;1.30;;;4.00;90.70;;;;;;5012955;28;20516;-72
2022/02/28 03:49:47;;;;;;;1.60;1.47;;;3.90;90.70;;;;;;5009585;28;20470;-72
2022/02/28 03:52:14;;;;;;;1.60;1.40;;;3.90;90.80;;;;;;5015370;28;20495;-72
2022/02/28 03:54:41;;;;;;;1.60;1.50;;;3.90;90.90;;;;;;5010339;28;20468;-72
2022/02/28 03:57:07;;;;;;;1.60;1.40;;;3.80;90.90;;;;;;5009875;28;20488;-72
2022/02/28 03:59:34;;;;;;;1.60;1.40;;;3.80;91.20;;;;;;5009365;28;21091;-72
2022/02/28 04:02:01;;;;;;;1.60;1.50;;;3.70;91.20;;;;;;4999027;28;21015;-72
2022/02/28 04:04:29;;;;;;;1.60;1.40;;;3.70;91.50;;;;;;5012043;28;21133;-72
2022/02/28 04:06:56;;;;;;;1.60;1.50;;;3.60;91.70;;;;;;5009493;28;20992;-72
2022/02/28 04:09:23;;;;;;;1.60;1.30;;;3.60;91.80;;;;;;5009223;28;20471;-72
2022/02/28 04:11:50;;;;;;;1.60;1.40;;;3.60;91.90;;;;;;5010305;28;20533;-72
2022/02/28 04:14:17;;;;;;;1.60;1.40;;;3.60;91.90;;;;;;5009262;28;20496;-72
2022/02/28 04:16:44;;;;;;;1.60;1.33;;;3.70;92.00;;;;;;5008336;28;21046;-72
2022/02/28 04:19:10;;;;;;;1.60;1.50;;;3.70;92.00;;;;;;5011799;28;20840;-72
2022/02/28 04:21:38;;;;;;;1.60;1.50;;;3.60;92.00;;;;;;4993988;28;21032;-72
2022/02/28 04:24:06;;;;;;;1.60;1.40;;;3.60;92.10;;;;;;4996617;28;20463;-72
2022/02/28 04:26:34;;;;;;;1.60;1.40;;;3.60;92.10;;;;;;5008853;28;20484;-72
2022/02/28 04:29:01;;;;;;;1.60;1.40;;;3.60;92.20;;;;;;5009834;28;20471;-72
2022/02/28 04:31:28;;;;;;;1.60;1.50;;;3.60;92.20;;;;;;5007339;28;20460;-72
2022/02/28 04:33:55;;;;;;;1.60;1.50;;;3.60;92.30;;;;;;5009841;28;20488;-72
2022/02/28 04:36:21;;;;;;;1.60;1.40;;;3.60;92.40;;;;;;4998785;28;20488;-72
2022/02/28 04:38:50;;;;;;;1.57;1.37;;;3.60;92.30;;;;;;4996082;28;20475;-72
2022/02/28 04:41:16;;;;;;;1.60;1.40;;;3.60;92.30;;;;;;4996524;28;20960;-72
2022/02/28 04:43:43;;;;;;;1.60;1.40;;;3.60;92.40;;;;;;5005436;28;20464;-72
2022/02/28 04:46:10;;;;;;;1.60;1.40;;;3.60;92.40;;;;;;5015599;28;20498;-72
2022/02/28 04:48:37;;;;;;;1.60;1.40;;;3.60;92.40;;;;;;5008558;28;20506;-72
2022/02/28 04:51:03;;;;;;;1.57;1.40;;;3.60;92.30;;;;;;5006797;28;20503;-72
2022/02/28 04:53:30;;;;;;;1.70;1.60;;;3.50;92.30;;;;;;5008666;28;20487;-72
2022/02/28 04:55:58;;;;;;;1.60;1.50;;;3.50;92.30;;;;;;5007754;28;20563;-72
2022/02/28 04:58:25;;;;;;;1.60;1.50;;;3.50;92.20;;;;;;5010745;28;20478;-72
2022/02/28 05:00:52;;;;;;;1.60;1.40;;;3.50;92.40;;;;;;5013762;28;20468;-73
2022/02/28 05:03:19;;;;;;;1.57;1.30;;;3.40;92.70;;;;;;5008032;28;20455;-72
2022/02/28 05:05:46;;;;;;;3.00;2.80;;;3.40;92.80;;;;;;5008842;28;20475;-72
2022/02/28 05:08:13;;;;;;;1.60;1.50;;;3.40;93.00;;;;;;5009055;28;20468;-72
2022/02/28 05:10:40;;;;;;;1.60;1.40;;;3.40;93.20;;;;;;5007653;28;20473;-72
2022/02/28 05:13:08;;;;;;;1.80;1.70;;;3.40;93.10;;;;;;5007836;28;20484;-72
2022/02/28 05:15:35;;;;;;;1.83;1.73;;;3.40;92.90;;;;;;5006556;28;20472;-72
2022/02/28 05:18:02;;;;;;;1.60;1.40;;;3.40;92.90;;;;;;5004452;28;20467;-72
2022/02/28 05:20:29;;;;;;;1.57;1.40;;;3.40;92.90;;;;;;5011713;28;20474;-72
2022/02/28 05:22:55;;;;;;;1.60;1.40;;;3.40;92.80;;;;;;5013842;28;20483;-72
2022/02/28 05:25:22;;;;;;;1.60;1.40;;;3.40;92.80;;;;;;5008766;28;20464;-72
2022/02/28 05:27:49;;;;;;;6.03;4.27;;;3.30;92.50;;;;;;5009476;28;20468;-73
2022/02/28 05:30:17;;;;;;;1.70;1.60;;;3.40;92.80;;;;;;5007677;28;20475;-73
2022/02/28 05:32:44;;;;;;;1.60;1.40;;;3.40;92.80;;;;;;4986625;28;20488;-71
2022/02/28 05:35:12;;;;;;;1.60;1.40;;;3.40;92.90;;;;;;5006232;28;20526;-72
2022/02/28 05:37:39;;;;;;;1.60;1.50;;;3.40;92.90;;;;;;5007740;28;20484;-72
2022/02/28 05:40:09;;;;;;;1.60;1.50;;;3.40;93.00;;;;;;5006412;28;20460;-72
2022/02/28 05:42:36;;;;;;;1.60;1.50;;;3.40;92.90;;;;;;5008172;28;20504;-72
2022/02/28 05:45:03;;;;;;;1.60;1.40;;;3.30;92.80;;;;;;5007775;28;20491;-72
2022/02/28 05:47:32;;;;;;;1.60;1.40;;;3.30;93.00;;;;;;4996078;28;20492;-72
2022/02/28 05:49:59;;;;;;;1.60;1.40;;;3.30;93.10;;;;;;5008570;28;20473;-72
2022/02/28 05:52:26;;;;;;;1.60;1.40;;;3.30;93.10;;;;;;4988300;28;21101;-72
2022/02/28 05:54:52;;;;;;;1.60;1.40;;;3.30;93.20;;;;;;5005515;28;20475;-72
2022/02/28 05:57:19;;;;;;;1.60;1.50;;;3.30;93.30;;;;;;5010200;28;20490;-73
2022/02/28 05:59:46;;;;;;;1.70;1.60;;;3.30;93.30;;;;;;5006932;28;20948;-73
2022/02/28 06:02:13;;;;;;;1.60;1.40;;;3.30;93.50;;;;;;5007044;28;20467;-71
2022/02/28 06:04:41;;;;;;;1.67;1.57;;;3.20;93.60;;;;;;5007613;28;20467;-70
2022/02/28 06:07:07;;;;;;;1.67;1.57;;;3.20;93.70;;;;;;5006935;28;20488;-71
2022/02/28 06:09:34;;;;;;;3.97;3.77;;;3.20;93.50;;;;;;5007138;28;20475;-71
2022/02/28 06:12:01;;;;;;;1.60;1.40;;;3.20;93.60;;;;;;4988777;28;20492;-70
2022/02/28 06:14:28;;;;;;;1.60;1.47;;;3.20;93.80;;;;;;5003486;28;20489;-70
2022/02/28 06:16:55;;;;;;;1.60;1.50;;;3.10;93.70;;;;;;5006343;28;20492;-71
2022/02/28 06:19:21;;;;;;;1.60;1.50;;;3.10;93.70;;;;;;5011777;28;20499;-71
2022/02/28 06:21:49;;;;;;;1.60;1.50;;;3.10;93.70;;;;;;5009794;28;20579;-71
2022/02/28 06:24:16;;;;;;;1.60;1.40;;;3.10;93.70;;;;;;5007808;28;20536;-70
2022/02/28 06:26:43;;;;;;;1.60;1.40;;;3.10;93.60;;;;;;5006497;28;20853;-70
2022/02/28 06:29:09;;;;;;;1.60;1.50;;;3.10;93.50;;;;;;5007669;28;20467;-72
2022/02/28 06:31:42;;;;;;;2.43;2.23;;;3.10;93.30;;;;;;5003894;28;20460;-69
2022/02/28 06:34:09;;;;;;;1.60;1.40;;;3.10;93.20;;;;;;5007521;28;20488;-69
2022/02/28 06:36:36;;;;;;;1.60;1.50;;;3.10;93.30;;;;;;5006064;28;20577;-70
2022/02/28 06:39:05;;;;;;;1.53;1.40;;;3.10;93.30;;;;;;5007011;28;20468;-70
2022/02/28 06:41:32;;;;;;;1.60;1.47;;;3.10;93.40;;;;;;5003639;28;20501;-69
2022/02/28 06:43:59;;;;;;;1.60;1.40;;;3.10;93.50;;;;;;5004815;28;20456;-69
2022/02/28 06:46:26;;;;;;;1.60;1.37;;;3.10;93.40;;;;;;5002372;28;20489;-69
2022/02/28 06:48:53;;;;;;;1.60;1.40;;;3.10;93.30;;;;;;5003481;28;20467;-69
2022/02/28 06:51:20;;;;;;;1.77;1.67;;;3.10;93.20;;;;;;5008954;28;20484;-69
2022/02/28 06:53:47;;;;;;;1.60;1.50;;;3.20;93.00;;;;;;5006160;28;20492;-69
2022/02/28 06:56:15;;;;;;;1.53;1.40;;;3.20;92.70;;;;;;5005752;28;20488;-70
2022/02/28 06:58:42;;;;;;;1.60;1.40;;;3.30;92.40;;;;;;5006866;28;20464;-69
2022/02/28 07:01:11;;;;;;;1.60;1.40;;;3.40;92.80;;;;;;5003445;28;20666;-70
2022/02/28 07:03:38;;;;;;;1.60;1.40;;;3.50;92.20;;;;;;5005331;28;20471;-70
2022/02/28 07:06:05;;;;;;;1.60;1.40;;;3.50;92.00;;;;;;5005967;28;20480;-69
2022/02/28 07:08:35;;;;;;;2.10;1.90;;;3.60;91.80;;;;;;5006717;28;20848;-70
2022/02/28 07:11:01;;;;;;;1.63;1.53;;;3.80;91.80;;;;;;4994671;28;20496;-69
2022/02/28 07:13:31;;;;;;;1.60;1.50;;;3.90;91.10;;;;;;4992334;28;20484;-71
2022/02/28 07:15:58;;;;;;;1.60;1.50;;;3.90;90.70;;;;;;5007931;28;20860;-70
2022/02/28 07:18:25;;;;;;;1.60;1.40;;;4.10;90.80;;;;;;5012719;28;20470;-70
2022/02/28 07:20:52;;;;;;;1.80;1.70;;;4.10;90.00;;;;;;5011520;28;20850;-69
2022/02/28 07:23:19;;;;;;;1.60;1.40;;;4.20;90.00;;;;;;5009373;28;21005;-69
2022/02/28 07:25:46;;;;;;;1.60;1.40;;;4.30;89.90;;;;;;5009134;28;20901;-71
2022/02/28 07:28:12;;;;;;;1.57;1.30;;;4.40;89.80;;;;;;5010105;28;20470;-71
2022/02/28 07:30:41;;;;;;;1.73;1.63;;;4.50;90.00;;;;;;5007648;28;20855;-71
2022/02/28 07:33:08;;;;;;;1.57;1.30;;;4.70;90.00;;;;;;5002195;28;20477;-70
2022/02/28 07:35:36;;;;;;;1.57;1.30;;;4.80;88.80;;;;;;5008469;28;20482;-71
2022/02/28 07:38:03;;;;;;;1.60;1.40;;;4.90;88.50;;;;;;5009550;28;20473;-71
2022/02/28 07:40:30;;;;;;;1.60;1.40;;;4.90;87.90;;;;;;5009258;28;20471;-71
2022/02/28 07:42:57;;;;;;;1.60;1.40;;;5.00;87.80;;;;;;5008927;28;21088;-71
2022/02/28 07:45:24;;;;;;;1.60;1.50;;;5.00;87.30;;;;;;5008097;28;20460;-71
2022/02/28 07:47:52;;;;;;;1.60;1.40;;;5.00;86.90;;;;;;5007931;28;20976;-70
2022/02/28 07:50:20;;;;;;;1.60;1.30;;;5.10;86.90;;;;;;5009565;28;20464;-71
2022/02/28 07:52:47;;;;;;;1.60;1.40;;;5.20;87.10;;;;;;5007929;28;20929;-71
2022/02/28 07:55:14;;;;;;;1.57;1.30;;;5.30;86.70;;;;;;5012560;28;20522;-71
2022/02/28 07:57:41;;;;;;;1.53;1.40;;;5.30;86.00;;;;;;5006341;28;20602;-72
2022/02/28 08:00:10;;;;;;;1.60;1.40;;;5.40;85.70;;;;;;5006456;28;20472;-70
2022/02/28 08:02:37;;;;;;;1.60;1.30;;;5.40;85.50;;;;;;5007461;28;20548;-70
2022/02/28 08:05:06;;;;;;;1.60;1.40;;;5.40;85.70;;;;;;5009463;28;20521;-70
2022/02/28 08:07:33;;;;;;;1.53;1.30;;;5.50;85.30;;;;;;4989628;28;20965;-70
2022/02/28 08:10:00;;;;;;;1.60;1.30;;;5.60;85.80;;;;;;5003540;28;20466;-70
2022/02/28 08:12:28;;;;;;;1.60;1.40;;;5.70;84.70;;;;;;5007147;28;20499;-70
2022/02/28 08:14:56;;;;;;;3.47;1.90;;;5.80;84.60;;;;;;5008581;28;21043;-70
2022/02/28 08:17:22;;;;;;;1.60;1.50;;;5.80;84.70;;;;;;4996007;28;21007;-70
2022/02/28 08:19:49;;;;;;;1.50;1.30;;;5.90;84.60;;;;;;5005349;28;20472;-71
2022/02/28 08:22:18;;;;;;;1.60;1.30;;;6.10;84.70;;;;;;5008381;28;20845;-71
2022/02/28 08:24:45;;;;;;;2.00;1.80;;;6.20;83.60;;;;;;5007548;28;20460;-70
2022/02/28 08:27:12;;;;;;;1.60;1.40;;;6.10;83.10;;;;;;5006249;28;20476;-71
2022/02/28 08:29:39;;;;;;;1.57;1.30;;;6.30;83.70;;;;;;5006840;28;21000;-70
2022/02/28 08:32:06;;;;;;;1.50;1.20;;;6.40;83.20;;;;;;5007902;28;20472;-70
2022/02/28 08:34:33;;;;;;;1.70;1.50;;;6.50;82.90;;;;;;5008257;28;20490;-71
2022/02/28 08:37:00;;;;;;;1.50;1.20;;;6.50;82.00;;;;;;4993836;28;20583;-71
2022/02/28 08:39:28;;;;;;;1.60;1.50;;;6.50;82.00;;;;;;5004259;28;20478;-71
2022/02/28 08:41:55;;;;;;;1.53;1.27;;;6.50;82.40;;;;;;5008024;28;20555;-70
2022/02/28 08:44:22;;;;;;;2.23;2.03;;;6.60;82.20;;;;;;5005830;28;20470;-71
2022/02/28 08:46:49;;;;;;;1.60;1.40;;;6.70;81.70;;;;;;5006210;28;20512;-71
2022/02/28 08:49:17;;;;;;;1.60;1.30;;;6.80;81.40;;;;;;5010409;28;20460;-70
2022/02/28 08:51:44;;;;;;;1.53;1.30;;;6.90;80.80;;;;;;5006557;28;21174;-71
2022/02/28 08:54:11;;;;;;;1.60;1.30;;;7.00;80.70;;;;;;5008347;28;20580;-70
2022/02/28 08:56:40;;;;;;;1.60;1.40;;;7.10;80.50;;;;;;5006641;28;20490;-70
2022/02/28 08:59:07;;;;;;;2.20;1.97;;;7.20;80.60;;;;;;5007596;28;21028;-70
2022/02/28 09:01:34;;;;;;;1.70;1.60;;;7.30;80.00;;;;;;5004889;28;20984;-70
2022/02/28 09:04:01;;;;;;;1.60;1.23;;;7.40;80.40;;;;;;5008203;28;20971;-70
2022/02/28 09:06:28;;;;;;;1.60;1.30;;;7.50;79.90;;;;;;5008861;28;20535;-72
2022/02/28 09:08:56;;;;;;;1.60;1.30;;;7.60;79.60;;;;;;5009441;28;20467;-73
2022/02/28 09:11:23;;;;;;;1.60;1.30;;;7.70;79.30;;;;;;5005901;28;21187;-73
2022/02/28 09:13:52;;;;;;;1.60;1.30;;;7.80;78.30;;;;;;5007272;28;20984;-70
2022/02/28 09:16:21;;;;;;;2.37;2.13;;;7.80;78.60;;;;;;4993464;28;20567;-70
2022/02/28 09:18:48;;;;;;;1.60;1.30;;;7.90;78.90;;;;;;5009921;28;20518;-69
2022/02/28 09:21:15;;;;;;;1.57;1.30;;;8.20;78.80;;;;;;5008312;28;20464;-70
2022/02/28 09:23:42;;;;;;;1.60;1.30;;;8.20;78.20;;;;;;5008799;28;20472;-73
2022/02/28 09:26:10;;;;;;;2.23;2.03;;;8.30;77.30;;;;;;5004775;28;20480;-71
2022/02/28 09:28:37;;;;;;;1.50;1.20;;;8.20;77.00;;;;;;5009087;28;20471;-70
2022/02/28 09:31:07;;;;;;;1.50;1.20;;;8.30;77.90;;;;;;5005483;28;20456;-71
2022/02/28 09:33:34;;;;;;;1.50;1.20;;;8.40;78.20;;;;;;5006582;28;20518;-69
2022/02/28 09:36:01;;;;;;;1.50;1.20;;;8.70;77.80;;;;;;5005809;28;20510;-71
2022/02/28 09:38:28;;;;;;;1.60;1.27;;;8.90;76.70;;;;;;5006993;28;20492;-70
2022/02/28 09:40:56;;;;;;;1.53;1.13;;;9.00;76.60;;;;;;5004747;28;20518;-69
2022/02/28 09:43:23;;;;;;;1.57;1.20;;;9.10;75.60;;;;;;5005145;28;20555;-69
2022/02/28 09:45:53;;;;;;;1.60;1.20;;;9.20;75.50;;;;;;5004610;28;20546;-70
2022/02/28 09:48:22;;;;;;;1.50;1.10;;;9.20;74.10;;;;;;5005604;28;20490;-70
2022/02/28 09:50:49;;;;;;;1.57;1.20;;;9.20;74.40;;;;;;5005998;28;20957;-70
2022/02/28 09:53:16;;;;;;;1.60;1.20;;;9.10;73.20;;;;;;5009475;28;20567;-70
2022/02/28 09:55:43;;;;;;;1.53;1.20;;;9.10;72.60;;;;;;5006648;28;20570;-71
2022/02/28 09:58:11;;;;;;;1.53;1.10;;;9.10;73.00;;;;;;5004259;28;20862;-70
2022/02/28 10:00:41;;;;;;;1.53;1.10;;;9.10;73.10;;;;;;5006067;28;20472;-70
2022/02/28 10:03:08;;;;;;;1.60;1.27;;;9.20;73.60;;;;;;5005306;28;20995;-71
2022/02/28 10:05:37;;;;;;;1.60;1.20;;;9.40;73.10;;;;;;5005666;28;20988;-71
2022/02/28 10:08:06;;;;;;;1.60;1.20;;;9.40;72.80;;;;;;5003988;28;20472;-70
2022/02/28 10:10:35;;;;;;;1.53;1.17;;;9.50;72.20;;;;;;5005134;28;20487;-70
2022/02/28 10:13:02;;;;;;;1.60;1.23;;;9.60;72.10;;;;;;5006981;28;20473;-71
2022/02/28 10:15:30;;;;;;;1.57;1.10;;;9.60;71.70;;;;;;5005152;28;20574;-71
2022/02/28 10:17:58;;;;;;;2.73;1.97;;;9.70;71.40;;;;;;4994267;28;20564;-70
2022/02/28 10:20:27;;;;;;;1.50;1.13;;;9.90;71.00;;;;;;5007468;28;20467;-70
2022/02/28 10:22:57;;;;;;;1.70;1.20;;;9.90;70.10;;;;;;5004635;28;20471;-70
2022/02/28 10:25:32;;;;;;;1.60;1.20;;;10.00;71.30;;;;;;5003848;28;20488;-71
2022/02/28 10:28:15;;;;;;;1.60;1.30;;;10.20;71.50;;;;;;5004447;28;20491;-71
2022/02/28 10:30:52;;;;;;;3.33;3.13;;;10.30;70.40;;;;;;5003769;28;20456;-72
2022/02/28 10:33:19;;;;;;;2.27;2.07;;;10.40;70.40;;;;;;5006327;28;20467;-70
2022/02/28 10:36:01;;;;;;;3.10;2.90;;;10.60;69.20;;;;;;5005813;28;20496;-70
2022/02/28 10:38:31;;;;;;;1.60;1.00;;;10.60;68.50;;;;;;5006366;28;20467;-72
2022/02/28 10:40:59;;;;;;;3.20;2.90;;;10.60;68.10;;;;;;5004738;28;20467;-70
2022/02/28 10:43:28;;;;;;;1.60;1.27;;;10.60;67.70;;;;;;5006718;28;20977;-70
2022/02/28 10:45:55;;;;;;;1.50;1.10;;;10.50;68.20;;;;;;5004598;28;20487;-70
2022/02/28 10:48:23;;;;;;;1.50;1.10;;;10.60;68.10;;;;;;5003302;28;20468;-72
2022/02/28 10:50:51;;;;;;;1.60;1.20;;;10.60;67.90;;;;;;5007458;28;20869;-70
2022/02/28 10:53:20;;;;;;;1.90;1.63;;;10.70;68.60;;;;;;5005449;28;20468;-70
2022/02/28 10:55:50;;;;;;;1.60;1.10;;;10.90;68.60;;;;;;5004629;28;20496;-72
2022/02/28 10:58:19;;;;;;;1.57;1.10;;;10.90;67.70;;;;;;5006514;28;20928;-70
2022/02/28 11:00:53;;;;;;;1.53;1.10;;;10.90;67.90;;;;;;5003253;28;21035;-72
2022/02/28 11:03:21;;;;;;;1.50;1.00;;;11.10;68.80;;;;;;5005312;28;20537;-71
2022/02/28 11:05:56;;;;;;;1.53;1.07;;;11.20;68.10;;;;;;5005067;28;20546;-70
2022/02/28 11:08:24;;;;;;;1.50;1.10;;;11.20;68.30;;;;;;5004410;28;20704;-70
2022/02/28 11:10:54;;;;;;;1.50;1.20;;;11.30;67.90;;;;;;4995196;28;21122;-72
2022/02/28 11:13:22;;;;;;;1.50;1.00;;;11.40;69.00;;;;;;4999484;28;20484;-71
2022/02/28 11:15:49;;;;;;;1.50;1.07;;;11.60;68.00;;;;;;5002633;28;20484;-72
2022/02/28 11:18:20;;;;;;;1.70;1.30;;;11.90;68.30;;;;;;5005144;28;20490;-73
2022/02/28 11:20:49;;;;;;;1.57;1.10;;;12.10;67.30;;;;;;5005705;28;20957;-73
2022/02/28 11:23:18;;;;;;;1.53;1.00;;;12.20;66.90;;;;;;5003503;28;20464;-72
2022/02/28 11:25:47;;;;;;;1.70;1.43;;;12.20;66.80;;;;;;5004995;28;20511;-72
2022/02/28 11:28:15;;;;;;;1.50;1.00;;;12.10;66.90;;;;;;5005420;28;20462;-72
2022/02/28 11:30:43;;;;;;;1.50;1.00;;;12.10;66.60;;;;;;5003697;28;20500;-71
2022/02/28 11:33:13;;;;;;;1.50;1.10;;;12.20;66.80;;;;;;5004529;28;20526;-73
2022/02/28 11:35:44;;;;;;;1.50;1.10;;;12.30;67.30;;;;;;5003973;28;20492;-71
2022/02/28 11:38:44;;;;;;;1.50;1.10;;;12.50;67.90;;;;;;5004075;28;20471;-71
2022/02/28 11:41:12;;;;;;;1.93;1.73;;;12.80;66.70;;;;;;5003515;28;20550;-72
2022/02/28 11:43:41;;;;;;;1.83;1.63;;;12.80;64.70;;;;;;5007265;28;21009;-71
2022/02/28 11:46:17;;;;;;;1.60;1.20;;;12.60;64.80;;;;;;5004662;28;20614;-73
2022/02/28 11:48:46;;;;;;;1.53;1.10;;;12.50;65.20;;;;;;5004980;28;20851;-73
2022/02/28 11:51:26;;;;;;;1.50;1.00;;;12.60;65.70;;;;;;5007199;28;20456;-73
2022/02/28 11:53:54;;;;;;;1.57;1.10;;;12.70;63.50;;;;;;5006037;28;20467;-73
2022/02/28 11:56:55;;;;;;;1.50;1.00;;;12.70;63.40;;;;;;5004543;28;20495;-71
2022/02/28 11:59:29;;;;;;;1.50;1.00;;;12.70;64.40;;;;;;4994407;28;20467;-70
2022/02/28 12:02:00;;;;;;;1.50;1.10;;;12.70;62.20;;;;;;4990070;28;21149;-72
2022/02/28 12:04:33;;;;;;;1.57;1.10;;;12.70;63.10;;;;;;4998737;28;20478;-71
2022/02/28 12:07:03;;;;;;;1.50;1.00;;;12.80;61.90;;;;;;4999808;28;20498;-71
2022/02/28 12:09:45;;;;;;;1.70;1.60;;;12.70;60.70;;;;;;5002759;28;21319;-72
2022/02/28 12:12:15;;;;;;;1.50;1.10;;;12.70;60.80;;;;;;5003545;28;20478;-71
2022/02/28 12:15:15;;;;;;;1.50;1.10;;;12.60;60.40;;;;;;5003814;28;20472;-72
2022/02/28 12:18:03;;;;;;;1.50;1.03;;;12.60;60.90;;;;;;4982709;28;21366;-72
2022/02/28 12:20:33;;;;;;;1.60;1.37;;;12.70;60.90;;;;;;5001241;28;20459;-72
2022/02/28 12:23:16;;;;;;;1.50;1.10;;;12.70;61.80;;;;;;5006742;28;20471;-73
2022/02/28 12:25:45;;;;;;;1.50;1.10;;;12.80;60.70;;;;;;5003135;28;20498;-73
2022/02/28 12:28:21;;;;;;;1.50;1.00;;;12.60;60.30;;;;;;5004332;28;20559;-72
2022/02/28 12:30:52;;;;;;;3.00;2.80;;;12.60;59.80;;;;;;5002790;28;20542;-72
2022/02/28 12:33:23;;;;;;;1.50;1.00;;;12.60;59.80;;;;;;5002397;28;20474;-72
2022/02/28 12:35:54;;;;;;;1.50;1.10;;;12.70;60.10;;;;;;5002763;28;20495;-72
2022/02/28 12:38:23;;;;;;;3.83;1.93;;;12.70;59.20;;;;;;5003553;28;20503;-72
2022/02/28 12:40:51;;;;;;;1.50;1.10;;;12.80;58.80;;;;;;5003202;28;21275;-73
2022/02/28 12:43:19;;;;;;;1.90;1.63;;;12.90;60.90;;;;;;5004364;28;20471;-71
2022/02/28 12:45:52;;;;;;;1.50;1.10;;;13.00;60.70;;;;;;5002895;28;20814;-71
2022/02/28 12:48:20;;;;;;;1.53;1.20;;;13.00;60.70;;;;;;4974547;28;20499;-72
2022/02/28 12:50:49;;;;;;;1.50;1.00;;;13.00;60.30;;;;;;5004995;28;20541;-73
2022/02/28 12:53:17;;;;;;;1.70;1.30;;;13.00;60.50;;;;;;5005409;28;20495;-72
2022/02/28 12:55:55;;;;;;;1.50;1.10;;;13.00;60.80;;;;;;5003152;28;20492;-71
2022/02/28 12:58:25;;;;;;;1.50;1.00;;;13.00;61.10;;;;;;5002346;28;20659;-71
2022/02/28 13:00:54;;;;;;;1.50;1.10;;;13.10;61.70;;;;;;4999146;28;20487;-72